createdAt,value
2018-09-15T00:01:20.101Z,65.23
2018-09-15T00:03:50.867Z,65.22
2018-09-15T00:06:22.581Z,65.72
2018-09-15T00:08:53.013Z,66.10
2018-09-15T00:11:23.959Z,65.72
2018-09-15T00:13:54.405Z,65.62
2018-09-15T00:16:24.854Z,65.68
2018-09-15T00:18:55.570Z,65.67
2018-09-15T00:21:26.048Z,65.72
2018-09-15T00:23:56.416Z,65.48
2018-09-15T00:26:26.825Z,65.84
2018-09-15T00:28:57.186Z,66.06
2018-09-15T00:31:27.639Z,65.34
2018-09-15T00:33:58.075Z,65.56
2018-09-15T00:36:28.505Z,65.91
2018-09-15T00:38:58.963Z,66.04
2018-09-15T00:41:30.008Z,65.92
2018-09-15T00:44:00.409Z,66.18
2018-09-15T00:46:30.858Z,65.88
2018-09-15T00:49:01.365Z,65.99
2018-09-15T00:51:31.740Z,66.19
2018-09-15T00:54:02.274Z,66.03
2018-09-15T00:56:32.744Z,66.10
2018-09-15T00:59:03.159Z,65.98
2018-09-15T01:01:33.796Z,66.01
2018-09-15T01:04:05.089Z,65.92
2018-09-15T01:06:35.452Z,65.69
2018-09-15T01:09:09.264Z,65.82
2018-09-15T01:11:39.691Z,65.93
2018-09-15T01:14:10.180Z,65.68
2018-09-15T01:16:40.585Z,65.90
2018-09-15T01:19:10.983Z,66.15
2018-09-15T01:21:41.420Z,66.10
2018-09-15T01:24:11.898Z,65.33
2018-09-15T01:26:42.299Z,65.40
2018-09-15T01:29:12.683Z,65.33
2018-09-15T01:31:43.128Z,65.43
2018-09-15T01:34:13.558Z,65.47
2018-09-15T01:36:43.915Z,65.26
2018-09-15T01:39:14.313Z,65.12
2018-09-15T01:41:44.716Z,65.10
2018-09-15T01:44:15.120Z,65.03
2018-09-15T01:46:45.530Z,65.05
2018-09-15T01:49:15.936Z,64.83
2018-09-15T01:51:46.351Z,64.60
2018-09-15T01:54:16.769Z,65.47
2018-09-15T01:56:47.188Z,65.61
2018-09-15T01:59:17.611Z,65.41
2018-09-15T02:01:47.978Z,65.03
2018-09-15T02:04:18.443Z,64.99
2018-09-15T02:06:48.840Z,65.16
2018-09-15T02:09:19.328Z,65.85
2018-09-15T02:11:49.675Z,65.92
2018-09-15T02:14:20.637Z,65.76
2018-09-15T02:16:51.073Z,65.93
2018-09-15T02:19:22.565Z,66.36
2018-09-15T02:21:53.014Z,65.94
2018-09-15T02:24:23.369Z,66.45
2018-09-15T02:26:53.756Z,66.21
2018-09-15T02:29:24.213Z,66.77
2018-09-15T02:31:54.621Z,67.19
2018-09-15T02:34:24.952Z,66.90
2018-09-15T02:36:55.384Z,66.97
2018-09-15T02:39:25.823Z,67.21
2018-09-15T02:41:56.298Z,67.17
2018-09-15T02:44:26.646Z,67.13
2018-09-15T02:46:57.141Z,67.30
2018-09-15T02:49:27.546Z,67.40
2018-09-15T02:51:58.008Z,67.79
2018-09-15T02:54:28.405Z,67.89
2018-09-15T02:56:58.861Z,67.62
2018-09-15T02:59:29.282Z,68.05
2018-09-15T03:01:59.740Z,68.36
2018-09-15T03:04:30.136Z,68.22
2018-09-15T03:07:00.603Z,68.02
2018-09-15T03:09:31.028Z,68.07
2018-09-15T03:12:01.431Z,68.60
2018-09-15T03:14:31.855Z,68.28
2018-09-15T03:17:02.241Z,68.57
2018-09-15T03:19:32.700Z,68.58
2018-09-15T03:22:03.130Z,68.48
2018-09-15T03:24:33.588Z,68.29
2018-09-15T03:27:03.999Z,68.75
2018-09-15T03:29:34.421Z,68.83
2018-09-15T03:32:04.884Z,69.28
2018-09-15T03:34:35.329Z,69.22
2018-09-15T03:37:05.668Z,69.29
2018-09-15T03:39:36.392Z,69.02
2018-09-15T03:42:06.874Z,69.30
2018-09-15T03:44:37.316Z,69.06
2018-09-15T03:47:07.724Z,69.39
2018-09-15T03:49:38.285Z,70.00
2018-09-15T03:52:08.681Z,69.83
2018-09-15T03:54:39.211Z,70.06
2018-09-15T03:57:09.597Z,70.10
2018-09-15T03:59:40.005Z,70.36
2018-09-15T04:02:10.352Z,70.14
2018-09-15T04:04:40.730Z,70.55
2018-09-15T04:07:11.110Z,70.68
2018-09-15T04:09:41.509Z,71.15
2018-09-15T04:12:11.923Z,71.64
2018-09-15T04:14:42.269Z,71.36
2018-09-15T04:17:12.707Z,71.74
2018-09-15T04:19:43.107Z,71.54
2018-09-15T04:22:13.585Z,71.85
2018-09-15T04:24:44.017Z,71.92
2018-09-15T04:27:15.039Z,72.00
2018-09-15T04:29:45.483Z,71.98
2018-09-15T04:32:15.867Z,71.91
2018-09-15T04:34:46.217Z,72.00
2018-09-15T04:37:16.650Z,72.54
2018-09-15T04:39:47.053Z,72.28
2018-09-15T04:42:17.533Z,72.40
2018-09-15T04:44:47.964Z,72.55
2018-09-15T04:47:18.406Z,72.77
2018-09-15T04:49:48.779Z,73.05
2018-09-15T04:52:19.367Z,73.13
2018-09-15T04:54:49.720Z,72.62
2018-09-15T04:57:20.276Z,72.80
2018-09-15T04:59:51.363Z,73.05
2018-09-15T05:02:21.700Z,73.11
2018-09-15T05:04:52.172Z,73.48
2018-09-15T05:07:22.628Z,73.55
2018-09-15T05:09:53.057Z,73.73
2018-09-15T05:12:23.532Z,74.01
2018-09-15T05:14:53.944Z,73.75
2018-09-15T05:17:24.355Z,73.81
2018-09-15T05:19:54.782Z,73.43
2018-09-15T05:22:25.139Z,73.66
2018-09-15T05:24:55.558Z,73.44
2018-09-15T05:27:25.936Z,73.66
2018-09-15T05:29:56.573Z,74.00
2018-09-15T05:32:27.872Z,74.04
2018-09-15T05:34:58.549Z,73.64
2018-09-15T05:37:30.421Z,74.03
2018-09-15T05:40:02.002Z,74.18
2018-09-15T05:42:32.394Z,74.07
2018-09-15T05:45:02.923Z,73.98
2018-09-15T05:47:35.047Z,73.73
2018-09-15T05:50:05.715Z,73.75
2018-09-15T05:52:36.053Z,74.06
2018-09-15T05:55:07.176Z,73.37
2018-09-15T05:57:37.631Z,73.30
2018-09-15T06:00:08.159Z,73.28
2018-09-15T06:02:38.608Z,72.90
2018-09-15T06:05:10.838Z,72.97
2018-09-15T06:07:41.330Z,72.55
2018-09-15T06:10:11.634Z,72.44
2018-09-15T06:12:42.084Z,72.00
2018-09-15T06:15:12.423Z,71.91
2018-09-15T06:17:42.897Z,71.86
2018-09-15T06:20:13.315Z,71.64
2018-09-15T06:22:43.754Z,71.88
2018-09-15T06:25:14.255Z,71.28
2018-09-15T06:27:44.704Z,71.19
2018-09-15T06:30:15.068Z,70.82
2018-09-15T06:32:45.611Z,70.68
2018-09-15T06:35:16.137Z,70.47
2018-09-15T06:37:46.771Z,70.52
2018-09-15T06:40:17.274Z,69.61
2018-09-15T06:42:47.785Z,68.86
2018-09-15T06:45:18.311Z,68.31
2018-09-15T06:47:48.665Z,67.65
2018-09-15T06:50:19.073Z,67.16
2018-09-15T06:52:49.501Z,66.70
2018-09-15T06:55:20.412Z,66.15
2018-09-15T06:57:50.769Z,66.19
2018-09-15T07:00:21.328Z,65.71
2018-09-15T07:02:51.712Z,65.53
2018-09-15T07:05:22.057Z,65.42
2018-09-15T07:07:52.575Z,65.20
2018-09-15T07:10:23.028Z,63.95
2018-09-15T07:12:53.606Z,63.63
2018-09-15T07:15:24.007Z,63.09
2018-09-15T07:17:54.656Z,62.52
2018-09-15T07:20:25.074Z,62.16
2018-09-15T07:22:55.471Z,61.82
2018-09-15T07:25:25.932Z,60.60
2018-09-15T07:27:56.362Z,59.71
2018-09-15T07:30:26.722Z,59.43
2018-09-15T07:32:57.141Z,59.37
2018-09-15T07:35:27.597Z,58.49
2018-09-15T07:37:57.956Z,57.78
2018-09-15T07:40:28.407Z,57.73
2018-09-15T07:42:59.826Z,57.16
2018-09-15T07:45:31.305Z,55.91
2018-09-15T07:48:02.132Z,55.44
2018-09-15T07:50:32.564Z,55.21
2018-09-15T07:53:03.100Z,53.79
2018-09-15T07:55:33.491Z,52.51
2018-09-15T07:58:03.979Z,51.62
2018-09-15T08:00:34.391Z,52.02
2018-09-15T08:03:06.912Z,52.08
2018-09-15T08:05:37.300Z,52.60
2018-09-15T08:08:07.804Z,52.20
2018-09-15T08:10:38.130Z,52.05
2018-09-15T08:13:08.514Z,51.52
2018-09-15T08:15:38.991Z,49.80
2018-09-15T08:18:09.295Z,49.17
2018-09-15T08:20:39.698Z,48.80
2018-09-15T08:23:14.660Z,48.02
2018-09-15T08:25:45.037Z,49.05
2018-09-15T08:28:15.393Z,50.68
2018-09-15T08:30:45.767Z,51.87
2018-09-15T08:33:16.214Z,52.47
2018-09-15T08:35:46.874Z,52.28
2018-09-15T08:38:17.219Z,53.61
2018-09-15T08:40:47.668Z,54.64
2018-09-15T08:43:18.159Z,53.80
2018-09-15T08:45:50.661Z,54.49
2018-09-15T08:48:21.051Z,53.91
2018-09-15T08:50:51.533Z,55.23
2018-09-15T08:53:21.923Z,57.07
2018-09-15T08:58:50.017Z,58.71
2018-09-15T09:01:20.471Z,58.98
2018-09-15T09:03:50.895Z,60.34
2018-09-15T09:06:21.344Z,61.09
2018-09-15T09:08:51.721Z,61.94
2018-09-15T09:11:22.095Z,63.01
2018-09-15T09:13:52.581Z,62.53
2018-09-15T09:16:22.928Z,61.02
2018-09-15T09:18:53.427Z,60.52
2018-09-15T09:21:23.853Z,58.83
2018-09-15T09:23:54.329Z,56.10
2018-09-15T09:26:24.842Z,54.82
2018-09-15T09:28:55.242Z,53.73
2018-09-15T09:31:25.672Z,54.28
2018-09-15T09:33:56.129Z,53.14
2018-09-15T09:36:26.475Z,53.79
2018-09-15T09:38:56.880Z,54.17
2018-09-15T09:41:27.336Z,54.23
2018-09-15T09:43:57.789Z,54.23
2018-09-15T09:46:28.205Z,54.67
2018-09-15T09:48:58.690Z,55.79
2018-09-15T09:51:29.124Z,57.32
2018-09-15T09:53:59.551Z,59.11
2018-09-15T09:56:29.968Z,59.56
2018-09-15T09:59:00.453Z,59.60
2018-09-15T10:02:33.806Z,58.59
2018-09-15T10:05:04.242Z,55.40
2018-09-15T10:07:34.683Z,52.57
2018-09-15T10:10:05.197Z,51.34
2018-09-15T10:12:35.570Z,49.80
2018-09-15T10:15:06.044Z,49.16
2018-09-15T10:17:36.426Z,49.25
2018-09-15T10:20:07.166Z,48.83
2018-09-15T10:22:37.592Z,47.76
2018-09-15T10:25:08.267Z,46.57
2018-09-15T10:27:38.724Z,46.56
2018-09-15T10:30:09.149Z,46.41
2018-09-15T10:32:39.559Z,45.87
2018-09-15T10:35:09.983Z,45.46
2018-09-15T10:37:40.981Z,46.64
2018-09-15T10:40:11.378Z,47.60
2018-09-15T10:42:41.844Z,47.94
2018-09-15T10:45:12.625Z,47.95
2018-09-15T10:47:43.058Z,49.08
2018-09-15T10:50:13.465Z,50.85
2018-09-15T10:52:43.921Z,52.94
2018-09-15T10:55:14.305Z,53.17
2018-09-15T10:57:44.698Z,53.54
2018-09-15T11:00:15.173Z,53.00
2018-09-15T11:02:45.512Z,53.43
2018-09-15T11:05:15.895Z,53.47
2018-09-15T11:07:46.241Z,53.82
2018-09-15T11:10:16.647Z,53.48
2018-09-15T11:12:47.013Z,52.30
2018-09-15T11:15:17.410Z,51.17
2018-09-15T11:17:47.936Z,51.03
2018-09-15T11:20:18.385Z,50.12
2018-09-15T11:22:48.821Z,49.23
2018-09-15T11:25:19.289Z,47.30
2018-09-15T11:27:49.709Z,45.66
2018-09-15T11:30:20.122Z,44.10
2018-09-15T11:32:50.391Z,42.96
2018-09-15T11:35:20.760Z,40.76
2018-09-15T11:37:51.221Z,38.51
2018-09-15T11:40:21.563Z,39.12
2018-09-15T11:42:51.978Z,37.72
2018-09-15T11:45:22.351Z,34.35
2018-09-15T11:47:52.733Z,34.29
2018-09-15T11:50:23.096Z,33.72
2018-09-15T11:52:53.495Z,33.92
2018-09-15T11:55:23.922Z,33.33
2018-09-15T11:57:54.292Z,33.85
2018-09-15T12:00:29.357Z,34.10
2018-09-15T12:02:59.865Z,34.50
2018-09-15T12:05:30.199Z,35.05
2018-09-15T12:08:00.859Z,35.36
2018-09-15T12:10:31.213Z,35.67
2018-09-15T12:13:01.726Z,36.72
2018-09-15T12:15:32.060Z,37.49
2018-09-15T12:18:02.448Z,38.20
2018-09-15T12:20:32.831Z,39.47
2018-09-15T12:23:03.173Z,39.75
2018-09-15T12:25:34.356Z,40.53
2018-09-15T12:28:05.088Z,40.93
2018-09-15T12:30:35.907Z,41.58
2018-09-15T12:33:06.741Z,42.31
2018-09-15T12:35:37.447Z,42.89
2018-09-15T12:38:08.184Z,43.43
2018-09-15T12:40:39.018Z,43.06
2018-09-15T12:43:09.763Z,43.55
2018-09-15T12:45:40.487Z,43.22
2018-09-15T12:48:11.250Z,43.09
2018-09-15T12:50:41.950Z,42.59
2018-09-15T12:53:12.648Z,42.76
2018-09-15T12:55:43.292Z,42.50
2018-09-15T12:58:14.024Z,42.36
2018-09-15T13:00:44.833Z,42.74
2018-09-15T13:03:15.609Z,43.09
2018-09-15T13:05:46.339Z,44.28
2018-09-15T13:08:17.085Z,45.66
2018-09-15T13:10:47.855Z,46.38
2018-09-15T13:13:18.517Z,46.56
2018-09-15T13:15:49.335Z,47.39
2018-09-15T13:18:20.266Z,47.36
2018-09-15T13:20:51.115Z,47.69
2018-09-15T13:23:22.098Z,47.48
2018-09-15T13:25:52.827Z,47.56
2018-09-15T13:28:23.604Z,47.17
2018-09-15T13:30:54.410Z,47.42
2018-09-15T13:33:25.071Z,47.19
2018-09-15T13:35:55.860Z,47.73
2018-09-15T13:38:26.645Z,47.13
2018-09-15T13:40:57.453Z,46.39
2018-09-15T13:43:28.170Z,46.13
2018-09-15T13:45:58.955Z,46.09
2018-09-15T13:48:29.669Z,46.29
2018-09-15T13:51:00.707Z,46.53
2018-09-15T13:53:31.635Z,45.87
2018-09-15T13:56:02.438Z,46.32
2018-09-15T13:58:33.348Z,45.68
2018-09-15T14:01:04.117Z,45.43
2018-09-15T14:03:35.032Z,46.47
2018-09-15T14:06:05.842Z,46.83
2018-09-15T14:08:36.655Z,46.04
2018-09-15T14:11:07.497Z,45.50
2018-09-15T14:13:38.426Z,45.32
2018-09-15T14:16:09.164Z,45.56
2018-09-15T14:18:39.931Z,45.74
2018-09-15T14:21:10.667Z,46.20
2018-09-15T14:23:41.480Z,47.53
2018-09-15T14:26:12.295Z,46.77
2018-09-15T14:28:43.089Z,45.61
2018-09-15T14:31:13.909Z,45.57
2018-09-15T14:33:44.689Z,46.13
2018-09-15T14:36:15.494Z,45.70
2018-09-15T14:38:46.467Z,45.85
2018-09-15T14:41:17.177Z,46.33
2018-09-15T14:43:47.900Z,45.68
2018-09-15T14:46:18.605Z,46.07
2018-09-15T14:48:49.529Z,46.44
2018-09-15T14:51:20.342Z,46.54
2018-09-15T14:53:51.077Z,45.83
2018-09-15T14:56:22.095Z,45.56
2018-09-15T14:58:52.971Z,46.39
2018-09-15T15:01:23.843Z,45.79
2018-09-15T15:03:54.563Z,47.27
2018-09-15T15:06:25.261Z,47.43
2018-09-15T15:08:55.971Z,48.11
2018-09-15T15:11:26.716Z,47.25
2018-09-15T15:13:57.428Z,47.89
2018-09-15T15:16:28.168Z,47.30
2018-09-15T15:18:58.825Z,47.12
2018-09-15T15:21:29.585Z,47.17
2018-09-15T15:24:00.340Z,48.30
2018-09-15T15:26:31.083Z,47.91
2018-09-15T15:29:02.009Z,47.22
2018-09-15T15:31:32.699Z,46.83
2018-09-15T15:34:03.456Z,46.84
2018-09-15T15:36:34.225Z,46.92
2018-09-15T15:39:06.637Z,46.81
2018-09-15T15:41:37.347Z,46.42
2018-09-15T15:44:08.184Z,46.31
2018-09-15T15:46:39.149Z,46.94
2018-09-15T15:49:09.881Z,47.40
2018-09-15T15:51:40.664Z,46.58
2018-09-15T15:54:11.352Z,47.00
2018-09-15T15:56:42.080Z,48.67
2018-09-15T15:59:12.847Z,47.96
2018-09-15T16:01:43.626Z,48.72
2018-09-15T16:04:14.341Z,48.92
2018-09-15T16:06:45.056Z,49.18
2018-09-15T16:09:15.753Z,49.08
2018-09-15T16:11:46.477Z,49.33
2018-09-15T16:14:17.202Z,50.25
2018-09-15T16:16:47.897Z,49.99
2018-09-15T16:19:18.642Z,50.07
2018-09-15T16:21:49.332Z,49.98
2018-09-15T16:24:20.066Z,49.90
2018-09-15T16:26:50.730Z,50.11
2018-09-15T16:29:21.464Z,49.80
2018-09-15T16:31:52.205Z,50.18
2018-09-15T16:34:22.917Z,49.60
2018-09-15T16:36:53.633Z,49.24
2018-09-15T16:39:24.377Z,49.19
2018-09-15T16:41:55.099Z,49.60
2018-09-15T16:44:25.883Z,50.37
2018-09-15T16:46:56.548Z,50.75
2018-09-15T16:49:27.256Z,50.26
2018-09-15T16:51:58.001Z,49.92
2018-09-15T16:54:28.651Z,50.64
2018-09-15T16:56:59.510Z,51.21
2018-09-15T16:59:30.157Z,51.34
2018-09-15T17:02:00.853Z,51.54
2018-09-15T17:04:31.566Z,51.93
2018-09-15T17:07:02.390Z,51.80
2018-09-15T17:09:33.196Z,52.67
2018-09-15T17:12:03.968Z,53.40
2018-09-15T17:14:34.783Z,53.65
2018-09-15T17:17:05.573Z,53.94
2018-09-15T17:19:36.783Z,53.94
2018-09-15T17:22:07.466Z,54.71
2018-09-15T17:24:38.173Z,54.63
2018-09-15T17:27:09.077Z,55.02
2018-09-15T17:29:39.753Z,55.62
2018-09-15T17:32:11.537Z,56.63
2018-09-15T17:34:42.314Z,57.63
2018-09-15T17:37:13.033Z,57.98
2018-09-15T17:39:43.774Z,58.17
2018-09-15T17:42:14.451Z,58.31
2018-09-15T17:44:45.127Z,58.28
2018-09-15T17:47:15.864Z,58.78
2018-09-15T17:49:46.604Z,58.58
2018-09-15T17:52:17.345Z,59.16
2018-09-15T17:54:48.102Z,58.95
2018-09-15T17:57:18.787Z,59.66
2018-09-15T17:59:49.464Z,60.29
2018-09-15T18:02:20.211Z,60.32
2018-09-15T18:04:51.004Z,60.72
2018-09-15T18:07:21.674Z,60.47
2018-09-15T18:09:52.362Z,61.15
2018-09-15T18:12:23.205Z,61.68
2018-09-15T18:14:53.912Z,62.33
2018-09-15T18:17:24.824Z,62.27
2018-09-15T18:19:55.477Z,62.37
2018-09-15T18:22:27.088Z,63.05
2018-09-15T18:24:57.764Z,63.18
2018-09-15T18:27:28.484Z,63.22
2018-09-15T18:29:59.314Z,63.53
2018-09-15T18:32:30.301Z,63.70
2018-09-15T18:35:00.969Z,63.47
2018-09-15T18:37:31.820Z,63.86
2018-09-15T18:40:02.443Z,64.02
2018-09-15T18:42:33.198Z,64.23
2018-09-15T18:45:03.932Z,64.37
2018-09-15T18:47:34.682Z,64.53
2018-09-15T18:50:05.458Z,64.72
2018-09-15T18:52:36.199Z,65.12
2018-09-15T18:55:06.915Z,65.44
2018-09-15T18:57:37.612Z,65.44
2018-09-15T19:00:08.385Z,65.69
2018-09-15T19:02:39.116Z,65.55
2018-09-15T19:05:09.893Z,65.97
2018-09-15T19:07:40.635Z,65.92
2018-09-15T19:10:11.280Z,66.41
2018-09-15T19:12:41.953Z,66.52
2018-09-15T19:15:12.619Z,66.51
2018-09-15T19:17:43.323Z,66.22
2018-09-15T19:20:14.215Z,66.65
2018-09-15T19:22:44.867Z,66.70
2018-09-15T19:25:15.520Z,66.40
2018-09-15T19:27:46.255Z,66.46
2018-09-15T19:30:17.608Z,66.10
2018-09-15T19:32:48.311Z,66.21
2018-09-15T19:35:18.925Z,66.13
2018-09-15T19:37:49.635Z,66.23
2018-09-15T19:40:20.363Z,66.28
2018-09-15T19:42:51.017Z,66.46
2018-09-15T19:45:21.727Z,66.53
2018-09-15T19:47:52.458Z,66.62
2018-09-15T19:50:23.142Z,67.18
2018-09-15T19:52:53.839Z,67.90
2018-09-15T19:55:24.539Z,67.96
2018-09-15T19:57:55.263Z,67.93
2018-09-15T20:00:25.930Z,68.23
2018-09-15T20:02:56.562Z,68.80
2018-09-15T20:05:27.223Z,69.25
2018-09-15T20:07:57.924Z,69.57
2018-09-15T20:10:28.613Z,69.27
2018-09-15T20:12:59.330Z,68.71
2018-09-15T20:15:30.320Z,69.15
2018-09-15T20:17:59.713Z,69.61
2018-09-15T20:20:28.600Z,69.86
2018-09-15T20:22:59.279Z,70.31
2018-09-15T20:25:30.004Z,70.13
2018-09-15T20:28:00.735Z,70.65
2018-09-15T20:30:31.444Z,70.05
2018-09-15T20:33:02.247Z,70.03
2018-09-15T20:35:32.851Z,70.17
2018-09-15T20:38:03.451Z,70.60
2018-09-15T20:40:34.200Z,70.36
2018-09-15T20:43:04.849Z,70.58
2018-09-15T20:45:35.527Z,70.80
2018-09-15T20:48:06.311Z,70.85
2018-09-15T20:50:36.984Z,70.68
2018-09-15T20:53:07.688Z,70.77
2018-09-15T20:55:38.356Z,71.23
2018-09-15T20:58:09.072Z,71.47
2018-09-15T21:00:39.779Z,71.40
2018-09-15T21:03:10.494Z,72.05
2018-09-15T21:05:41.171Z,72.00
2018-09-15T21:08:11.892Z,72.17
2018-09-15T21:10:42.577Z,72.13
2018-09-15T21:13:13.301Z,72.30
2018-09-15T21:15:44.036Z,72.44
2018-09-15T21:18:14.882Z,72.36
2018-09-15T21:20:45.642Z,72.70
2018-09-15T21:23:16.308Z,72.91
2018-09-15T21:25:46.989Z,72.83
2018-09-15T21:28:17.840Z,73.07
2018-09-15T21:30:48.529Z,73.24
2018-09-15T21:33:19.285Z,72.92
2018-09-15T21:35:50.011Z,73.71
2018-09-15T21:38:20.901Z,74.00
2018-09-15T21:40:51.629Z,74.05
2018-09-15T21:43:22.348Z,74.19
2018-09-15T21:45:53.018Z,74.11
2018-09-15T21:48:23.987Z,74.53
2018-09-15T21:50:54.703Z,74.57
2018-09-15T21:53:25.566Z,74.45
2018-09-15T21:55:56.252Z,74.39
2018-09-15T21:58:26.856Z,74.68
2018-09-15T22:01:02.677Z,74.80
2018-09-15T22:04:36.184Z,74.38
2018-09-15T22:07:06.963Z,74.04
2018-09-15T22:09:37.644Z,74.07
2018-09-15T22:12:08.412Z,74.54
2018-09-15T22:14:39.839Z,74.76
2018-09-15T22:17:10.579Z,74.83
2018-09-15T22:19:41.259Z,75.14
2018-09-15T22:22:12.081Z,75.55
2018-09-15T22:24:42.810Z,75.84
2018-09-15T22:27:13.582Z,76.02
2018-09-15T22:29:44.268Z,76.23
2018-09-15T22:32:15.005Z,76.30
2018-09-15T22:34:45.633Z,76.48
2018-09-15T22:37:16.335Z,76.48
2018-09-15T22:39:47.008Z,76.59
2018-09-15T22:42:17.859Z,76.62
2018-09-15T22:44:48.468Z,76.32
2018-09-15T22:47:19.227Z,76.71
2018-09-15T22:49:49.896Z,76.72
2018-09-15T22:52:20.660Z,76.58
2018-09-15T22:54:51.353Z,77.37
2018-09-15T22:57:22.056Z,76.83
2018-09-15T22:59:52.740Z,76.56
2018-09-15T23:02:23.474Z,76.47
2018-09-15T23:04:54.154Z,76.73
2018-09-15T23:07:24.844Z,76.66
2018-09-15T23:09:56.007Z,77.16
2018-09-15T23:12:26.695Z,76.76
2018-09-15T23:14:57.473Z,76.51
2018-09-15T23:17:28.152Z,76.88
2018-09-15T23:19:59.677Z,76.41
2018-09-15T23:22:30.414Z,76.54
2018-09-15T23:25:01.217Z,76.34
2018-09-15T23:27:31.931Z,76.52
2018-09-15T23:30:02.722Z,76.63
2018-09-15T23:32:33.427Z,76.29
2018-09-15T23:35:04.138Z,76.42
2018-09-15T23:37:34.786Z,76.49
2018-09-15T23:40:05.603Z,76.68
2018-09-15T23:42:36.349Z,76.64
2018-09-15T23:45:07.067Z,76.96
2018-09-15T23:47:37.755Z,76.97
2018-09-15T23:50:08.431Z,77.07
2018-09-15T23:52:39.160Z,77.13
2018-09-15T23:55:09.930Z,77.31
2018-09-15T23:57:40.666Z,77.47
